createdAt,value
2017-07-26T00:00:55.724Z,11.90
2017-07-26T00:03:23.312Z,11.90
2017-07-26T00:05:51.853Z,11.80
2017-07-26T00:08:19.391Z,11.80
2017-07-26T00:10:46.958Z,11.80
2017-07-26T00:13:15.274Z,11.80
2017-07-26T00:15:42.821Z,11.80
2017-07-26T00:18:10.414Z,11.80
2017-07-26T00:20:37.952Z,11.80
2017-07-26T00:23:07.758Z,11.80
2017-07-26T00:25:36.098Z,11.80
2017-07-26T00:28:03.638Z,11.80
2017-07-26T00:30:31.179Z,11.80
2017-07-26T00:32:58.741Z,11.80
2017-07-26T00:35:26.296Z,11.80
2017-07-26T00:37:53.858Z,11.70
2017-07-26T00:40:22.197Z,11.70
2017-07-26T00:42:49.763Z,11.70
2017-07-26T00:45:17.347Z,11.70
2017-07-26T00:47:45.165Z,11.70
2017-07-26T00:50:12.712Z,11.80
2017-07-26T00:52:40.280Z,11.80
2017-07-26T00:55:08.869Z,11.80
2017-07-26T00:57:36.440Z,11.80
2017-07-26T01:00:04.008Z,11.80
2017-07-26T01:02:31.852Z,11.80
2017-07-26T01:05:00.146Z,11.70
2017-07-26T01:07:28.471Z,11.70
2017-07-26T01:09:56.051Z,11.70
2017-07-26T01:12:23.591Z,11.70
2017-07-26T01:14:52.144Z,11.70
2017-07-26T01:17:19.703Z,11.70
2017-07-26T01:19:47.350Z,11.70
2017-07-26T01:22:16.713Z,11.70
2017-07-26T01:24:44.300Z,11.70
2017-07-26T01:27:12.932Z,11.70
2017-07-26T01:29:41.249Z,11.70
2017-07-26T01:32:08.856Z,11.70
2017-07-26T01:34:36.473Z,11.70
2017-07-26T01:37:04.041Z,11.70
2017-07-26T01:39:31.652Z,11.70
2017-07-26T01:41:59.243Z,11.70
2017-07-26T01:44:27.273Z,11.70
2017-07-26T01:46:54.853Z,11.70
2017-07-26T01:49:22.436Z,11.70
2017-07-26T01:51:50.003Z,11.70
2017-07-26T01:54:18.342Z,11.70
2017-07-26T01:56:45.904Z,11.60
2017-07-26T01:59:13.475Z,11.70
2017-07-26T02:01:41.011Z,11.70
2017-07-26T02:04:08.620Z,11.70
2017-07-26T02:06:36.194Z,11.70
2017-07-26T02:09:03.760Z,11.70
2017-07-26T02:11:31.325Z,11.70
2017-07-26T02:13:59.656Z,11.70
2017-07-26T02:16:27.217Z,11.70
2017-07-26T02:18:54.777Z,11.70
2017-07-26T02:21:22.332Z,11.70
2017-07-26T02:23:49.894Z,11.70
2017-07-26T02:26:17.463Z,11.80
2017-07-26T02:28:45.028Z,11.70
2017-07-26T02:31:12.603Z,11.80
2017-07-26T02:33:40.184Z,11.80
2017-07-26T02:36:07.764Z,11.80
2017-07-26T02:38:35.364Z,11.80
2017-07-26T02:41:02.916Z,11.80
2017-07-26T02:43:30.478Z,11.80
2017-07-26T02:45:58.053Z,11.80
2017-07-26T02:48:25.599Z,11.80
2017-07-26T02:50:53.973Z,11.80
2017-07-26T02:53:21.547Z,11.80
2017-07-26T02:55:49.097Z,11.80
2017-07-26T02:58:16.759Z,11.80
2017-07-26T03:00:44.318Z,11.90
2017-07-26T03:03:13.079Z,11.90
2017-07-26T03:05:41.036Z,11.90
2017-07-26T03:08:09.360Z,11.90
2017-07-26T03:10:36.913Z,11.90
2017-07-26T03:13:04.486Z,11.90
2017-07-26T03:15:32.038Z,11.90
2017-07-26T03:17:59.593Z,11.90
2017-07-26T03:20:27.152Z,11.90
2017-07-26T03:22:54.717Z,12.00
2017-07-26T03:25:22.316Z,12.00
2017-07-26T03:27:49.868Z,11.90
2017-07-26T03:30:17.431Z,12.00
2017-07-26T03:32:45.017Z,11.90
2017-07-26T03:35:12.564Z,11.90
2017-07-26T03:37:40.128Z,11.90
2017-07-26T03:40:07.674Z,11.90
2017-07-26T03:42:35.208Z,11.90
2017-07-26T03:45:02.769Z,11.90
2017-07-26T03:47:30.314Z,11.90
2017-07-26T03:49:57.884Z,11.90
2017-07-26T03:52:25.429Z,11.90
2017-07-26T03:54:52.964Z,11.90
2017-07-26T03:57:20.531Z,11.90
2017-07-26T03:59:48.078Z,11.90
2017-07-26T04:02:16.386Z,12.00
2017-07-26T04:04:43.972Z,11.90
2017-07-26T04:07:11.544Z,11.90
2017-07-26T04:09:39.120Z,11.90
2017-07-26T04:12:06.679Z,12.00
2017-07-26T04:14:34.182Z,11.90
2017-07-26T04:17:03.481Z,12.00
2017-07-26T04:19:31.061Z,11.90
2017-07-26T04:21:58.649Z,11.90
2017-07-26T04:24:26.218Z,12.00
2017-07-26T04:26:53.774Z,12.00
2017-07-26T04:29:21.353Z,12.00
2017-07-26T04:31:48.905Z,12.00
2017-07-26T04:34:16.772Z,12.00
2017-07-26T04:36:44.556Z,12.00
2017-07-26T04:39:12.121Z,12.00
2017-07-26T04:41:39.721Z,12.00
2017-07-26T04:44:07.263Z,12.00
2017-07-26T04:46:34.810Z,12.00
2017-07-26T04:49:02.387Z,12.10
2017-07-26T04:51:30.298Z,12.00
2017-07-26T04:53:57.877Z,12.00
2017-07-26T04:56:25.462Z,12.00
2017-07-26T04:58:53.011Z,12.00
2017-07-26T05:01:20.592Z,12.00
2017-07-26T05:03:48.118Z,12.10
2017-07-26T05:06:16.486Z,12.10
2017-07-26T05:08:44.036Z,12.10
2017-07-26T05:11:11.591Z,12.20
2017-07-26T05:13:39.198Z,12.20
2017-07-26T05:16:07.563Z,12.10
2017-07-26T05:18:35.119Z,12.10
2017-07-26T05:21:03.653Z,12.10
2017-07-26T05:23:31.220Z,12.10
2017-07-26T05:25:58.805Z,12.10
2017-07-26T05:28:26.611Z,12.10
2017-07-26T05:30:54.157Z,12.20
2017-07-26T05:33:21.706Z,12.20
2017-07-26T05:35:49.334Z,12.20
2017-07-26T05:38:17.694Z,12.30
2017-07-26T05:40:45.251Z,12.30
2017-07-26T05:43:12.796Z,12.30
2017-07-26T05:45:40.382Z,12.30
2017-07-26T05:48:07.964Z,12.30
2017-07-26T05:50:35.586Z,12.20
2017-07-26T05:53:03.145Z,12.20
2017-07-26T05:55:30.851Z,12.20
2017-07-26T05:57:58.764Z,12.30
2017-07-26T06:00:26.375Z,12.20
2017-07-26T06:02:53.996Z,12.20
2017-07-26T06:05:22.310Z,12.10
2017-07-26T06:07:49.874Z,12.10
2017-07-26T06:10:17.474Z,12.10
2017-07-26T06:12:45.126Z,12.10
2017-07-26T06:15:12.742Z,12.10
2017-07-26T06:17:40.299Z,12.00
2017-07-26T06:20:08.852Z,12.10
2017-07-26T06:22:36.460Z,12.10
2017-07-26T06:25:04.041Z,12.10
2017-07-26T06:27:31.664Z,12.10
2017-07-26T06:29:59.289Z,12.10
2017-07-26T06:32:26.910Z,12.10
2017-07-26T06:34:55.718Z,12.10
2017-07-26T06:37:23.780Z,12.10
2017-07-26T06:39:51.382Z,12.10
2017-07-26T06:42:19.009Z,12.00
2017-07-26T06:44:46.691Z,12.00
2017-07-26T06:47:14.276Z,12.10
2017-07-26T06:49:41.989Z,12.10
2017-07-26T06:52:09.534Z,12.10
2017-07-26T06:54:37.419Z,12.10
2017-07-26T06:57:05.078Z,12.10
2017-07-26T06:59:32.781Z,12.10
2017-07-26T07:02:00.381Z,12.10
2017-07-26T07:04:28.109Z,12.10
2017-07-26T07:06:55.683Z,12.10
2017-07-26T07:09:23.287Z,12.20
2017-07-26T07:11:50.831Z,12.20
2017-07-26T07:14:18.455Z,12.20
2017-07-26T07:16:47.141Z,12.20
2017-07-26T07:19:15.203Z,12.20
2017-07-26T07:21:42.813Z,12.30
2017-07-26T07:24:10.375Z,12.30
2017-07-26T07:26:38.785Z,12.40
2017-07-26T07:29:06.488Z,12.40
2017-07-26T07:31:34.212Z,12.40
2017-07-26T07:34:01.878Z,12.40
2017-07-26T07:36:29.458Z,12.40
2017-07-26T07:38:58.787Z,12.30
2017-07-26T07:41:26.358Z,12.30
2017-07-26T07:43:54.043Z,12.40
2017-07-26T07:46:22.215Z,12.50
2017-07-26T07:48:52.095Z,12.50
2017-07-26T07:51:20.701Z,12.60
2017-07-26T07:53:48.377Z,12.50
2017-07-26T07:56:16.038Z,12.50
2017-07-26T07:58:43.916Z,12.60
2017-07-26T08:01:11.600Z,12.60
2017-07-26T08:03:40.056Z,12.60
2017-07-26T08:06:08.453Z,12.60
2017-07-26T08:08:36.375Z,12.60
2017-07-26T08:11:03.949Z,12.60
2017-07-26T08:13:32.308Z,12.60
2017-07-26T08:16:00.167Z,12.70
2017-07-26T08:18:28.196Z,12.70
2017-07-26T08:20:56.235Z,12.70
2017-07-26T08:23:23.831Z,12.70
2017-07-26T08:25:51.742Z,12.70
2017-07-26T08:28:19.453Z,12.60
2017-07-26T08:30:47.407Z,12.60
2017-07-26T08:33:15.714Z,12.70
2017-07-26T08:35:43.746Z,12.80
2017-07-26T08:38:11.347Z,12.70
2017-07-26T08:40:44.525Z,12.60
2017-07-26T08:43:12.289Z,12.60
2017-07-26T08:45:39.911Z,12.60
2017-07-26T08:48:09.681Z,12.70
2017-07-26T08:50:37.849Z,12.70
2017-07-26T08:53:06.194Z,12.70
2017-07-26T08:55:33.796Z,12.70
2017-07-26T08:58:01.473Z,12.80
2017-07-26T09:00:29.935Z,12.80
2017-07-26T09:02:58.375Z,12.80
2017-07-26T09:05:26.156Z,12.80
2017-07-26T09:07:55.051Z,12.80
2017-07-26T09:10:22.746Z,13.00
2017-07-26T09:12:50.355Z,13.10
2017-07-26T09:15:17.901Z,13.10
2017-07-26T09:17:45.539Z,13.00
2017-07-26T09:20:13.212Z,13.10
2017-07-26T09:22:40.775Z,13.00
2017-07-26T09:25:08.404Z,12.90
2017-07-26T09:27:35.992Z,13.00
2017-07-26T09:30:03.612Z,13.00
2017-07-26T09:32:31.241Z,13.00
2017-07-26T09:34:59.599Z,13.10
2017-07-26T09:37:27.559Z,13.10
2017-07-26T09:39:55.253Z,13.00
2017-07-26T09:42:22.797Z,13.10
2017-07-26T09:44:50.410Z,13.00
2017-07-26T09:47:18.790Z,13.00
2017-07-26T09:49:46.414Z,13.00
2017-07-26T09:52:14.010Z,13.10
2017-07-26T09:54:41.605Z,13.10
2017-07-26T09:57:09.946Z,13.00
2017-07-26T09:59:37.510Z,13.00
2017-07-26T10:02:05.159Z,13.00
2017-07-26T10:04:32.747Z,12.90
2017-07-26T10:07:00.509Z,12.90
2017-07-26T10:09:28.053Z,12.90
2017-07-26T10:11:55.619Z,12.90
2017-07-26T10:14:23.168Z,12.90
2017-07-26T10:16:50.719Z,13.00
2017-07-26T10:19:18.263Z,13.00
2017-07-26T10:21:45.835Z,13.00
2017-07-26T10:24:13.422Z,13.00
2017-07-26T10:26:40.998Z,12.90
2017-07-26T10:29:08.617Z,13.00
2017-07-26T10:31:36.180Z,13.00
2017-07-26T10:34:03.869Z,13.00
2017-07-26T10:36:31.446Z,13.10
2017-07-26T10:38:59.002Z,13.10
2017-07-26T10:41:26.561Z,13.10
2017-07-26T10:43:54.116Z,13.10
2017-07-26T10:46:21.660Z,13.00
2017-07-26T10:48:49.219Z,12.90
2017-07-26T10:51:16.741Z,13.00
2017-07-26T10:53:44.319Z,13.10
2017-07-26T10:56:11.880Z,13.20
2017-07-26T10:58:39.502Z,13.20
2017-07-26T11:01:07.126Z,13.10
2017-07-26T11:03:34.679Z,13.20
2017-07-26T11:06:02.240Z,13.20
2017-07-26T11:08:29.904Z,13.20
2017-07-26T11:10:57.447Z,13.10
2017-07-26T11:13:25.041Z,13.10
2017-07-26T11:15:53.648Z,13.10
2017-07-26T11:18:21.208Z,13.10
2017-07-26T11:20:48.779Z,13.10
2017-07-26T11:23:16.461Z,13.10
2017-07-26T11:25:44.058Z,13.10
2017-07-26T11:28:11.592Z,13.00
2017-07-26T11:30:39.125Z,13.10
2017-07-26T11:33:06.714Z,13.10
2017-07-26T11:35:34.307Z,13.10
2017-07-26T11:38:01.860Z,13.10
2017-07-26T11:40:29.444Z,13.10
2017-07-26T11:42:57.033Z,13.10
2017-07-26T11:45:24.622Z,13.00
2017-07-26T11:47:59.237Z,13.00
2017-07-26T11:50:26.773Z,13.10
2017-07-26T11:52:54.717Z,13.10
2017-07-26T11:55:25.002Z,13.20
2017-07-26T11:57:52.623Z,13.20
2017-07-26T12:00:20.191Z,13.40
2017-07-26T12:02:49.416Z,13.40
2017-07-26T12:05:16.944Z,13.40
2017-07-26T12:07:50.646Z,13.30
2017-07-26T12:10:18.199Z,13.20
2017-07-26T12:12:45.760Z,13.20
2017-07-26T12:15:13.877Z,13.10
2017-07-26T12:17:42.101Z,13.20
2017-07-26T12:20:10.146Z,13.20
2017-07-26T12:22:38.185Z,13.30
2017-07-26T12:25:08.399Z,13.30
2017-07-26T12:27:38.454Z,13.40
2017-07-26T12:30:08.678Z,13.50
2017-07-26T12:32:37.191Z,13.60
2017-07-26T12:35:05.039Z,13.70
2017-07-26T12:37:33.999Z,13.60
2017-07-26T12:40:02.601Z,13.50
2017-07-26T12:42:30.194Z,13.50
2017-07-26T12:44:57.773Z,13.50
2017-07-26T12:47:25.354Z,13.70
2017-07-26T12:49:52.937Z,13.80
2017-07-26T12:52:20.494Z,13.80
2017-07-26T12:54:48.557Z,13.70
2017-07-26T12:57:16.449Z,13.80
2017-07-26T12:59:44.117Z,13.90
2017-07-26T13:02:11.705Z,14.00
2017-07-26T13:04:40.189Z,14.00
2017-07-26T13:07:08.754Z,13.90
2017-07-26T13:09:38.173Z,13.70
2017-07-26T13:12:05.752Z,13.60
2017-07-26T13:14:33.343Z,13.60
2017-07-26T13:17:00.929Z,13.70
2017-07-26T13:19:28.471Z,13.60
2017-07-26T13:21:56.024Z,13.60
2017-07-26T13:24:23.600Z,13.60
2017-07-26T13:26:51.297Z,13.60
2017-07-26T13:29:18.876Z,13.70
2017-07-26T13:31:47.504Z,13.80
2017-07-26T13:34:15.125Z,13.90
2017-07-26T13:36:42.654Z,13.90
2017-07-26T13:39:11.219Z,14.10
2017-07-26T13:41:38.764Z,14.10
2017-07-26T13:44:06.373Z,14.10
2017-07-26T13:46:33.926Z,14.20
2017-07-26T13:49:01.505Z,14.20
2017-07-26T13:51:29.141Z,14.10
2017-07-26T13:53:57.608Z,14.10
2017-07-26T13:56:25.458Z,14.10
2017-07-26T13:58:53.118Z,14.20
2017-07-26T14:01:21.807Z,14.20
2017-07-26T14:03:49.502Z,14.10
2017-07-26T14:06:17.141Z,14.10
2017-07-26T14:08:44.971Z,14.10
2017-07-26T14:11:12.514Z,14.10
2017-07-26T14:13:40.419Z,13.90
2017-07-26T14:16:11.250Z,13.80
2017-07-26T14:18:38.939Z,13.70
2017-07-26T14:21:06.539Z,13.50
2017-07-26T14:23:34.097Z,13.50
2017-07-26T14:26:01.704Z,13.50
2017-07-26T14:28:29.367Z,13.60
2017-07-26T14:30:56.921Z,13.70
2017-07-26T14:33:24.456Z,13.60
2017-07-26T14:35:52.007Z,13.50
2017-07-26T14:38:19.589Z,13.60
2017-07-26T14:40:47.159Z,13.50
2017-07-26T14:43:14.905Z,13.60
2017-07-26T14:45:42.471Z,13.70
2017-07-26T14:48:10.046Z,13.80
2017-07-26T14:50:37.638Z,13.80
2017-07-26T14:53:05.308Z,13.90
2017-07-26T14:55:32.998Z,13.90
2017-07-26T14:58:00.674Z,13.80
2017-07-26T15:00:28.230Z,13.90
2017-07-26T15:02:56.746Z,13.90
2017-07-26T15:05:24.333Z,13.80
2017-07-26T15:08:00.280Z,13.80
2017-07-26T15:10:27.867Z,13.90
2017-07-26T15:12:55.418Z,13.90
2017-07-26T15:15:23.117Z,13.90
2017-07-26T15:17:50.671Z,13.90
2017-07-26T15:20:18.314Z,13.90
2017-07-26T15:22:45.864Z,13.80
2017-07-26T15:25:13.395Z,13.80
2017-07-26T15:27:41.010Z,13.80
2017-07-26T15:30:08.840Z,13.80
2017-07-26T15:32:36.443Z,13.90
2017-07-26T15:35:04.031Z,13.90
2017-07-26T15:37:31.568Z,13.90
2017-07-26T15:39:59.339Z,14.00
2017-07-26T15:42:27.112Z,14.00
2017-07-26T15:45:00.462Z,14.00
2017-07-26T15:47:28.682Z,14.00
2017-07-26T15:49:56.287Z,14.00
2017-07-26T15:52:24.683Z,13.90
2017-07-26T15:54:52.282Z,13.90
2017-07-26T15:57:19.845Z,13.90
2017-07-26T15:59:47.443Z,13.80
2017-07-26T16:02:15.032Z,13.90
2017-07-26T16:04:43.350Z,14.00
2017-07-26T16:07:10.913Z,14.00
2017-07-26T16:09:38.519Z,13.90
2017-07-26T16:12:06.122Z,13.90
2017-07-26T16:14:33.673Z,13.80
2017-07-26T16:17:01.992Z,13.80
2017-07-26T16:19:29.573Z,13.80
2017-07-26T16:21:57.181Z,13.70
2017-07-26T16:24:25.585Z,13.70
2017-07-26T16:26:53.536Z,13.70
2017-07-26T16:29:22.043Z,13.80
2017-07-26T16:31:54.606Z,13.80
2017-07-26T16:34:25.865Z,13.70
2017-07-26T16:36:55.251Z,13.70
2017-07-26T16:39:24.167Z,13.70
2017-07-26T16:41:51.937Z,13.80
2017-07-26T16:44:23.926Z,13.90
2017-07-26T16:46:58.941Z,13.90
2017-07-26T16:49:26.880Z,13.90
2017-07-26T16:51:55.487Z,13.90
2017-07-26T16:54:23.087Z,13.90
2017-07-26T16:56:51.670Z,14.00
2017-07-26T16:59:19.214Z,14.00
2017-07-26T17:01:47.670Z,14.10
2017-07-26T17:04:15.228Z,14.10
2017-07-26T17:06:42.827Z,14.20
2017-07-26T17:09:11.210Z,14.20
2017-07-26T17:11:39.528Z,14.20
2017-07-26T17:14:07.268Z,14.20
2017-07-26T17:16:35.161Z,14.20
2017-07-26T17:19:10.515Z,14.20
2017-07-26T17:21:39.546Z,14.10
2017-07-26T17:24:09.906Z,14.00
2017-07-26T17:26:37.647Z,14.00
2017-07-26T17:29:05.429Z,14.00
2017-07-26T17:31:33.022Z,14.00
2017-07-26T17:34:00.596Z,13.90
2017-07-26T17:36:28.184Z,13.90
2017-07-26T17:38:55.749Z,13.90
2017-07-26T17:41:23.405Z,13.90
2017-07-26T17:43:50.959Z,13.90
2017-07-26T17:46:18.655Z,13.90
2017-07-26T17:48:46.238Z,14.00
2017-07-26T17:51:13.827Z,14.00
2017-07-26T17:53:41.407Z,14.00
2017-07-26T17:56:09.013Z,14.00
2017-07-26T17:58:37.346Z,14.00
2017-07-26T18:01:05.117Z,14.10
2017-07-26T18:06:19.261Z,14.10
2017-07-26T18:08:47.604Z,14.00
2017-07-26T18:11:15.192Z,14.00
2017-07-26T18:13:42.814Z,14.00
2017-07-26T18:16:10.464Z,14.00
2017-07-26T18:18:38.082Z,13.90
2017-07-26T18:21:05.768Z,13.80
2017-07-26T18:23:33.432Z,13.90
2017-07-26T18:26:01.054Z,13.90
2017-07-26T18:28:28.628Z,13.90
2017-07-26T18:30:56.193Z,13.90
2017-07-26T18:33:24.113Z,13.90
2017-07-26T18:35:51.660Z,13.80
2017-07-26T18:38:19.228Z,13.80
2017-07-26T18:40:46.903Z,13.80
2017-07-26T18:43:15.295Z,13.80
2017-07-26T18:45:43.656Z,13.80
2017-07-26T18:48:11.269Z,13.80
2017-07-26T18:50:38.852Z,13.80
2017-07-26T18:53:06.452Z,13.80
2017-07-26T18:55:33.991Z,13.80
2017-07-26T18:58:01.623Z,13.70
2017-07-26T19:00:30.617Z,13.80
2017-07-26T19:02:58.232Z,13.80
2017-07-26T19:05:25.784Z,13.70
2017-07-26T19:07:53.387Z,13.70
2017-07-26T19:10:20.955Z,13.70
2017-07-26T19:12:48.537Z,13.80
2017-07-26T19:15:16.073Z,13.70
2017-07-26T19:17:43.619Z,13.70
2017-07-26T19:20:11.858Z,13.70
2017-07-26T19:22:39.416Z,13.70
2017-07-26T19:25:06.999Z,13.60
2017-07-26T19:27:34.600Z,13.70
2017-07-26T19:30:02.193Z,13.70
2017-07-26T19:32:29.819Z,13.70
2017-07-26T19:34:57.397Z,13.70
2017-07-26T19:37:25.179Z,13.70
2017-07-26T19:39:52.843Z,13.70
2017-07-26T19:42:20.505Z,13.60
2017-07-26T19:44:48.073Z,13.70
2017-07-26T19:47:15.792Z,13.70
2017-07-26T19:49:43.381Z,13.70
2017-07-26T19:52:10.919Z,13.70
2017-07-26T19:54:42.599Z,13.60
2017-07-26T19:57:12.173Z,13.60
2017-07-26T19:59:40.945Z,13.60
2017-07-26T20:02:10.340Z,13.60
2017-07-26T20:04:38.651Z,13.60
2017-07-26T20:07:06.488Z,13.60
2017-07-26T20:09:34.318Z,13.60
2017-07-26T20:12:01.939Z,13.60
2017-07-26T20:14:29.542Z,13.60
2017-07-26T20:16:57.103Z,13.60
2017-07-26T20:19:24.768Z,13.60
2017-07-26T20:21:52.712Z,13.60
2017-07-26T20:24:20.711Z,13.50
2017-07-26T20:26:48.931Z,13.60
2017-07-26T20:29:16.559Z,13.60
2017-07-26T20:34:16.266Z,13.60
2017-07-26T20:36:45.601Z,13.60
2017-07-26T20:39:13.420Z,13.60
2017-07-26T20:41:43.121Z,13.60
2017-07-26T20:44:10.942Z,13.60
2017-07-26T20:46:39.364Z,13.50
2017-07-26T20:49:07.130Z,13.50
2017-07-26T20:51:34.773Z,13.50
2017-07-26T20:54:02.574Z,13.50
2017-07-26T20:56:30.613Z,13.50
2017-07-26T20:58:58.290Z,13.50
2017-07-26T21:01:25.856Z,13.50
2017-07-26T21:03:54.283Z,13.50
2017-07-26T21:06:22.128Z,13.50
2017-07-26T21:08:49.724Z,13.50
2017-07-26T21:11:17.317Z,13.50
2017-07-26T21:13:45.708Z,13.50
2017-07-26T21:16:15.080Z,13.50
2017-07-26T21:18:43.669Z,13.50
2017-07-26T21:21:12.708Z,13.50
2017-07-26T21:23:41.489Z,13.50
2017-07-26T21:26:09.059Z,13.40
2017-07-26T21:28:36.892Z,13.40
2017-07-26T21:31:04.452Z,13.40
2017-07-26T21:33:32.100Z,13.40
2017-07-26T21:36:01.362Z,13.40
2017-07-26T21:38:28.991Z,13.30
2017-07-26T21:40:57.322Z,13.30
2017-07-26T21:43:25.139Z,13.30
2017-07-26T21:45:52.864Z,13.20
2017-07-26T21:48:20.523Z,13.20
2017-07-26T21:50:48.253Z,13.10
2017-07-26T21:53:15.817Z,13.10
2017-07-26T21:55:43.623Z,13.00
2017-07-26T21:58:11.942Z,13.00
2017-07-26T22:00:45.896Z,12.90
2017-07-26T22:03:13.841Z,12.90
2017-07-26T22:05:41.729Z,12.80
2017-07-26T22:08:09.693Z,12.80
2017-07-26T22:10:37.554Z,12.70
2017-07-26T22:13:05.334Z,12.70
2017-07-26T22:15:34.039Z,12.60
2017-07-26T22:18:01.709Z,12.70
2017-07-26T22:20:31.148Z,12.50
2017-07-26T22:22:58.818Z,12.50
2017-07-26T22:25:26.500Z,12.50
2017-07-26T22:27:54.192Z,12.50
2017-07-26T22:30:21.851Z,12.50
2017-07-26T22:32:49.507Z,12.50
2017-07-26T22:35:17.151Z,12.40
2017-07-26T22:37:44.835Z,12.40
2017-07-26T22:40:12.508Z,12.40
2017-07-26T22:42:40.191Z,12.30
2017-07-26T22:45:07.846Z,12.30
2017-07-26T22:47:35.516Z,12.30
2017-07-26T22:50:03.182Z,12.20
2017-07-26T22:52:30.839Z,12.20
2017-07-26T22:54:58.529Z,12.20
2017-07-26T22:57:26.173Z,12.20
2017-07-26T22:59:53.866Z,12.10
2017-07-26T23:02:21.511Z,12.10
2017-07-26T23:04:49.168Z,12.10
2017-07-26T23:07:17.023Z,12.10
2017-07-26T23:09:44.683Z,12.10
2017-07-26T23:12:12.341Z,12.10
2017-07-26T23:14:40.023Z,12.10
2017-07-26T23:17:07.713Z,12.10
2017-07-26T23:19:35.407Z,12.10
2017-07-26T23:22:03.055Z,12.10
2017-07-26T23:24:30.724Z,12.00
2017-07-26T23:26:58.406Z,12.00
2017-07-26T23:29:26.046Z,12.00
2017-07-26T23:31:53.734Z,12.00
2017-07-26T23:34:21.372Z,12.10
2017-07-26T23:36:48.991Z,12.00
2017-07-26T23:39:16.669Z,12.10
2017-07-26T23:41:44.310Z,12.10
2017-07-26T23:44:11.928Z,12.00
2017-07-26T23:46:40.569Z,12.00
2017-07-26T23:49:08.222Z,12.00
2017-07-26T23:51:35.920Z,12.00
2017-07-26T23:54:03.597Z,12.00
2017-07-26T23:56:31.284Z,12.00
2017-07-26T23:58:58.936Z,12.00
